createdAt,value
2023-03-29T00:02:13.607Z,12.57
2023-03-29T00:04:42.409Z,12.61
2023-03-29T00:07:09.420Z,12.74
2023-03-29T00:09:37.049Z,12.84
2023-03-29T00:12:04.789Z,12.86
2023-03-29T00:14:32.183Z,12.94
2023-03-29T00:16:59.394Z,12.98
2023-03-29T00:19:26.780Z,13.14
2023-03-29T00:21:55.300Z,13.29
2023-03-29T00:24:22.573Z,13.34
2023-03-29T00:26:49.478Z,13.39
2023-03-29T00:29:16.780Z,13.44
2023-03-29T00:31:43.709Z,13.37
2023-03-29T00:34:11.156Z,13.42
2023-03-29T00:36:38.115Z,13.55
2023-03-29T00:39:09.514Z,13.59
2023-03-29T00:41:36.678Z,13.54
2023-03-29T00:44:04.780Z,13.55
2023-03-29T00:46:32.298Z,13.54
2023-03-29T00:49:07.277Z,13.52
2023-03-29T00:51:39.389Z,13.41
2023-03-29T00:54:15.615Z,13.37
2023-03-29T00:56:47.526Z,13.37
2023-03-29T00:59:20.320Z,13.41
2023-03-29T01:01:51.915Z,13.32
2023-03-29T01:04:30.314Z,13.39
2023-03-29T01:07:03.908Z,13.17
2023-03-29T01:09:38.047Z,13.24
2023-03-29T01:12:15.179Z,13.04
2023-03-29T01:14:50.263Z,13.14
2023-03-29T01:17:18.139Z,13.17
2023-03-29T01:19:53.584Z,13.24
2023-03-29T01:22:32.746Z,13.31
2023-03-29T01:25:16.392Z,13.39
2023-03-29T01:27:55.213Z,13.45
2023-03-29T01:30:30.314Z,13.37
2023-03-29T01:33:04.248Z,13.41
2023-03-29T01:35:39.588Z,13.52
2023-03-29T01:38:15.761Z,13.63
2023-03-29T01:40:43.296Z,13.73
2023-03-29T01:43:26.570Z,13.86
2023-03-29T01:46:11.800Z,13.90
2023-03-29T01:48:50.068Z,13.96
2023-03-29T01:51:29.385Z,13.96
2023-03-29T01:54:05.040Z,14.06
2023-03-29T01:56:38.759Z,14.10
2023-03-29T01:59:18.051Z,14.12
2023-03-29T02:01:55.394Z,14.14
2023-03-29T02:04:38.605Z,14.19
2023-03-29T02:07:10.132Z,14.16
2023-03-29T02:09:43.747Z,14.10
2023-03-29T02:12:20.688Z,14.03
2023-03-29T02:14:52.343Z,14.07
2023-03-29T02:17:26.327Z,14.16
2023-03-29T02:20:08.509Z,14.24
2023-03-29T02:22:56.961Z,14.36
2023-03-29T02:25:29.641Z,14.34
2023-03-29T02:27:57.309Z,14.44
2023-03-29T02:30:33.209Z,14.52
2023-03-29T02:33:10.842Z,14.51
2023-03-29T02:35:51.537Z,14.51
2023-03-29T02:38:26.997Z,14.48
2023-03-29T02:41:01.633Z,14.50
2023-03-29T02:43:34.837Z,14.48
2023-03-29T02:46:07.100Z,14.48
2023-03-29T02:48:37.290Z,14.42
2023-03-29T02:51:13.992Z,14.41
2023-03-29T02:53:48.907Z,14.36
2023-03-29T02:56:16.840Z,14.29
2023-03-29T02:58:44.332Z,14.21
2023-03-29T03:01:15.379Z,14.09
2023-03-29T03:03:42.922Z,14.00
2023-03-29T03:06:10.174Z,13.96
2023-03-29T03:08:37.205Z,13.95
2023-03-29T03:11:04.529Z,13.95
2023-03-29T03:13:31.965Z,13.91
2023-03-29T03:15:59.764Z,13.86
2023-03-29T03:18:28.218Z,13.80
2023-03-29T03:20:57.202Z,13.73
2023-03-29T03:23:25.631Z,13.75
2023-03-29T03:25:53.348Z,13.69
2023-03-29T03:28:20.678Z,13.69
2023-03-29T03:30:48.655Z,13.70
2023-03-29T03:33:43.217Z,13.59
2023-03-29T03:36:29.518Z,13.54
2023-03-29T03:38:57.232Z,13.44
2023-03-29T03:41:24.503Z,13.46
2023-03-29T03:43:51.569Z,13.48
2023-03-29T03:46:19.085Z,13.51
2023-03-29T03:48:47.952Z,13.59
2023-03-29T03:51:33.515Z,13.59
2023-03-29T03:54:00.867Z,13.66
2023-03-29T03:56:33.501Z,13.66
2023-03-29T03:59:14.852Z,13.69
2023-03-29T04:02:08.193Z,13.69
2023-03-29T04:04:38.994Z,13.70
2023-03-29T04:07:09.771Z,13.69
2023-03-29T04:09:54.606Z,13.65
2023-03-29T04:12:40.282Z,13.63
2023-03-29T04:15:09.173Z,13.61
2023-03-29T04:17:37.151Z,13.63
2023-03-29T04:20:28.945Z,13.62
2023-03-29T04:23:00.112Z,13.61
2023-03-29T04:25:28.370Z,13.58
2023-03-29T04:28:28.412Z,13.46
2023-03-29T04:31:24.609Z,13.32
2023-03-29T04:34:11.306Z,13.22
2023-03-29T04:36:40.444Z,13.05
2023-03-29T04:39:16.182Z,12.87
2023-03-29T04:44:35.141Z,12.49
2023-03-29T04:47:05.583Z,12.30
2023-03-29T04:49:58.547Z,12.40
2023-03-29T04:52:38.329Z,12.29
2023-03-29T04:55:08.589Z,12.26
2023-03-29T04:57:48.101Z,12.18
2023-03-29T05:00:20.991Z,12.04
2023-03-29T05:03:10.592Z,12.08
2023-03-29T05:05:43.157Z,12.09
2023-03-29T05:08:12.510Z,12.06
2023-03-29T05:11:09.338Z,12.06
2023-03-29T05:13:37.593Z,12.13
2023-03-29T05:16:06.275Z,12.06
2023-03-29T05:18:33.562Z,12.12
2023-03-29T05:21:01.313Z,12.16
2023-03-29T05:23:30.011Z,12.09
2023-03-29T05:26:35.121Z,12.05
2023-03-29T05:29:03.366Z,12.12
2023-03-29T05:31:30.919Z,12.19
2023-03-29T05:33:58.408Z,12.35
2023-03-29T05:36:28.144Z,12.43
2023-03-29T05:38:56.572Z,12.50
2023-03-29T05:41:24.452Z,12.59
2023-03-29T05:44:17.398Z,12.60
2023-03-29T05:46:48.990Z,12.64
2023-03-29T05:49:18.239Z,12.81
2023-03-29T05:51:58.230Z,12.59
2023-03-29T05:54:28.189Z,12.53
2023-03-29T05:56:55.410Z,12.36
2023-03-29T05:59:22.512Z,12.42
2023-03-29T06:01:50.778Z,12.52
2023-03-29T06:04:20.541Z,12.50
2023-03-29T06:07:17.469Z,12.64
2023-03-29T06:09:57.194Z,12.70
2023-03-29T06:12:24.676Z,12.88
2023-03-29T06:14:58.359Z,13.03
2023-03-29T06:17:36.541Z,13.00
2023-03-29T06:20:04.691Z,13.03
2023-03-29T06:22:31.758Z,13.15
2023-03-29T06:25:00.327Z,13.27
2023-03-29T06:27:31.445Z,13.29
2023-03-29T06:29:58.953Z,13.37
2023-03-29T06:32:26.189Z,13.49
2023-03-29T06:35:04.493Z,13.38
2023-03-29T06:37:39.049Z,13.38
2023-03-29T06:40:16.431Z,13.46
2023-03-29T06:42:45.669Z,13.52
2023-03-29T06:45:41.872Z,13.44
2023-03-29T06:48:20.299Z,13.61
2023-03-29T06:50:48.476Z,13.73
2023-03-29T06:53:16.820Z,13.75
2023-03-29T06:55:50.033Z,13.93
2023-03-29T06:58:43.493Z,13.96
2023-03-29T07:01:26.637Z,14.00
2023-03-29T07:03:58.945Z,14.10
2023-03-29T07:06:33.844Z,13.80
2023-03-29T07:09:01.835Z,13.93
2023-03-29T07:11:51.720Z,14.02
2023-03-29T07:14:23.476Z,14.14
2023-03-29T07:16:52.433Z,14.13
2023-03-29T07:19:27.397Z,14.14
2023-03-29T07:21:54.823Z,14.20
2023-03-29T07:24:29.590Z,14.26
2023-03-29T07:27:04.041Z,14.30
2023-03-29T07:29:33.285Z,14.30
2023-03-29T07:32:00.561Z,14.40
2023-03-29T07:34:43.359Z,14.48
2023-03-29T07:37:21.333Z,14.38
2023-03-29T07:39:48.590Z,14.34
2023-03-29T07:42:51.982Z,14.36
2023-03-29T07:45:26.150Z,14.45
2023-03-29T07:48:01.374Z,14.45
2023-03-29T07:50:40.854Z,14.45
2023-03-29T07:53:08.079Z,14.47
2023-03-29T07:55:35.177Z,14.60
2023-03-29T07:58:23.538Z,14.60
2023-03-29T08:00:50.940Z,14.74
2023-03-29T08:03:38.054Z,14.85
2023-03-29T08:06:07.312Z,14.98
2023-03-29T08:08:34.788Z,15.09
2023-03-29T08:11:11.905Z,15.12
2023-03-29T08:14:02.347Z,14.98
2023-03-29T08:17:08.508Z,15.15
2023-03-29T08:19:41.330Z,15.06
2023-03-29T08:22:20.923Z,15.03
2023-03-29T08:25:20.888Z,15.26
2023-03-29T08:27:51.706Z,15.39
2023-03-29T08:30:30.701Z,15.39
2023-03-29T08:33:01.364Z,15.39
2023-03-29T08:35:28.698Z,15.42
2023-03-29T08:38:19.067Z,15.47
2023-03-29T08:40:48.900Z,15.40
2023-03-29T08:43:56.554Z,15.33
2023-03-29T08:46:52.126Z,15.36
2023-03-29T08:49:29.484Z,15.36
2023-03-29T08:52:02.372Z,15.60
2023-03-29T08:54:39.708Z,15.61
2023-03-29T08:57:19.220Z,15.56
2023-03-29T08:59:55.290Z,15.53
2023-03-29T09:02:27.465Z,15.54
2023-03-29T09:05:13.980Z,15.77
2023-03-29T09:07:51.246Z,15.81
2023-03-29T09:10:23.342Z,15.91
2023-03-29T09:13:19.478Z,16.11
2023-03-29T09:15:55.189Z,16.20
2023-03-29T09:18:51.785Z,16.28
2023-03-29T09:21:28.953Z,16.45
2023-03-29T09:24:14.459Z,16.47
2023-03-29T09:26:59.043Z,16.72
2023-03-29T09:29:54.431Z,16.76
2023-03-29T09:32:34.128Z,16.92
2023-03-29T09:35:16.864Z,17.07
2023-03-29T09:37:46.220Z,17.14
2023-03-29T09:40:18.831Z,17.31
2023-03-29T09:42:58.112Z,17.40
2023-03-29T09:45:25.392Z,17.38
2023-03-29T09:47:58.320Z,17.50
2023-03-29T09:50:34.831Z,17.34
2023-03-29T09:53:05.303Z,17.30
2023-03-29T09:55:37.171Z,17.55
2023-03-29T09:58:29.328Z,17.82
2023-03-29T10:00:59.135Z,17.91
2023-03-29T10:03:29.150Z,18.12
2023-03-29T10:06:10.985Z,18.24
2023-03-29T10:08:45.712Z,18.22
2023-03-29T10:11:21.070Z,18.08
2023-03-29T10:13:51.494Z,18.06
2023-03-29T10:16:23.465Z,17.98
2023-03-29T10:18:50.720Z,17.96
2023-03-29T10:21:19.813Z,17.98
2023-03-29T10:23:48.491Z,17.96
2023-03-29T10:26:25.080Z,17.63
2023-03-29T10:28:55.102Z,17.61
2023-03-29T10:31:23.386Z,17.64
2023-03-29T10:33:53.695Z,17.63
2023-03-29T10:36:23.823Z,17.64
2023-03-29T10:38:54.182Z,17.70
2023-03-29T10:41:22.885Z,17.64
2023-03-29T10:43:52.047Z,17.64
2023-03-29T10:46:23.450Z,17.57
2023-03-29T10:48:55.472Z,17.40
2023-03-29T10:51:27.351Z,17.37
2023-03-29T10:53:54.400Z,17.40
2023-03-29T10:56:39.888Z,17.57
2023-03-29T10:59:24.152Z,17.64
2023-03-29T11:02:24.338Z,17.53
2023-03-29T11:05:09.476Z,17.37
2023-03-29T11:07:57.335Z,17.28
2023-03-29T11:10:37.688Z,17.34
2023-03-29T11:13:17.134Z,17.31
2023-03-29T11:16:05.566Z,17.51
2023-03-29T11:19:08.846Z,17.57
2023-03-29T11:21:46.810Z,17.60
2023-03-29T11:24:36.728Z,17.51
2023-03-29T11:27:19.485Z,17.31
2023-03-29T11:30:00.936Z,17.24
2023-03-29T11:32:38.094Z,17.28
2023-03-29T11:35:29.557Z,17.40
2023-03-29T11:38:04.725Z,17.36
2023-03-29T11:40:49.852Z,17.44
2023-03-29T11:43:24.531Z,17.57
2023-03-29T11:45:56.842Z,17.30
2023-03-29T11:48:27.251Z,17.36
2023-03-29T11:51:04.600Z,17.37
2023-03-29T11:53:46.577Z,17.48
2023-03-29T11:56:24.759Z,17.57
2023-03-29T11:59:02.625Z,17.73
2023-03-29T12:01:35.611Z,17.91
2023-03-29T12:04:11.361Z,17.92
2023-03-29T12:06:48.944Z,18.01
2023-03-29T12:09:31.415Z,18.09
2023-03-29T12:12:08.783Z,18.16
2023-03-29T12:14:57.085Z,18.09
2023-03-29T12:17:31.931Z,18.08
2023-03-29T12:23:15.871Z,18.01
2023-03-29T12:25:54.305Z,17.94
2023-03-29T12:29:04.331Z,17.79
2023-03-29T12:31:47.296Z,17.88
2023-03-29T12:34:52.490Z,17.61
2023-03-29T12:37:55.734Z,17.53
2023-03-29T12:41:01.488Z,17.43
2023-03-29T12:44:16.957Z,17.43
2023-03-29T12:47:01.979Z,17.37
2023-03-29T12:49:33.939Z,17.24
2023-03-29T12:52:14.240Z,17.19
2023-03-29T12:54:41.265Z,17.34
2023-03-29T12:57:21.748Z,17.55
2023-03-29T12:59:50.060Z,17.63
2023-03-29T13:02:35.602Z,17.75
2023-03-29T13:05:03.108Z,17.70
2023-03-29T13:07:45.046Z,17.85
2023-03-29T13:10:36.668Z,17.70
2023-03-29T13:13:17.875Z,17.78
2023-03-29T13:15:47.697Z,17.74
2023-03-29T13:18:37.748Z,17.81
2023-03-29T13:21:19.174Z,17.79
2023-03-29T13:24:00.318Z,17.86
2023-03-29T13:26:55.371Z,18.02
2023-03-29T13:30:07.901Z,17.98
2023-03-29T13:32:54.887Z,18.04
2023-03-29T13:35:38.609Z,18.04
2023-03-29T13:38:19.883Z,18.12
2023-03-29T13:41:00.297Z,17.98
2023-03-29T13:43:37.400Z,18.08
2023-03-29T13:46:22.820Z,18.40
2023-03-29T13:49:00.604Z,18.32
2023-03-29T13:52:04.333Z,18.56
2023-03-29T13:54:40.611Z,18.43
2023-03-29T13:57:16.595Z,18.42
2023-03-29T13:59:56.693Z,18.29
2023-03-29T14:02:36.491Z,18.25
2023-03-29T14:05:09.424Z,18.30
2023-03-29T14:07:41.438Z,18.28
2023-03-29T14:10:15.034Z,18.47
2023-03-29T14:12:42.800Z,18.45
2023-03-29T14:15:23.831Z,18.47
2023-03-29T14:17:58.303Z,18.40
2023-03-29T14:20:31.503Z,18.50
2023-03-29T14:22:58.828Z,18.50
2023-03-29T14:25:29.365Z,18.68
2023-03-29T14:27:56.613Z,18.80
2023-03-29T14:30:28.133Z,18.81
2023-03-29T14:32:55.770Z,18.86
2023-03-29T14:35:32.544Z,18.98
2023-03-29T14:38:01.333Z,18.98
2023-03-29T14:40:30.986Z,19.03
2023-03-29T14:43:06.532Z,19.14
2023-03-29T14:45:33.915Z,19.08
2023-03-29T14:48:01.237Z,19.17
2023-03-29T14:50:31.970Z,19.12
2023-03-29T14:53:01.260Z,19.08
2023-03-29T14:55:28.420Z,18.90
2023-03-29T14:57:55.974Z,18.77
2023-03-29T15:00:28.398Z,18.67
2023-03-29T15:02:58.417Z,18.55
2023-03-29T15:05:39.056Z,18.60
2023-03-29T15:08:12.466Z,18.49
2023-03-29T15:10:42.377Z,18.39
2023-03-29T15:13:19.386Z,18.49
2023-03-29T15:15:47.256Z,18.39
2023-03-29T15:18:16.538Z,18.42
2023-03-29T15:20:45.419Z,18.43
2023-03-29T15:23:24.751Z,18.55
2023-03-29T15:25:56.240Z,18.55
2023-03-29T15:28:30.792Z,18.57
2023-03-29T15:31:07.686Z,18.52
2023-03-29T15:33:38.297Z,18.25
2023-03-29T15:36:10.023Z,18.30
2023-03-29T15:41:10.004Z,18.32
2023-03-29T15:43:37.366Z,18.42
2023-03-29T15:46:05.188Z,18.55
2023-03-29T15:48:32.351Z,18.50
2023-03-29T15:51:02.584Z,18.60
2023-03-29T15:53:33.070Z,18.64
2023-03-29T15:56:02.522Z,18.50
2023-03-29T15:58:33.536Z,18.55
2023-03-29T16:01:09.936Z,18.57
2023-03-29T16:03:37.495Z,18.49
2023-03-29T16:06:05.853Z,18.57
2023-03-29T16:08:34.449Z,18.63
2023-03-29T16:11:04.079Z,18.68
2023-03-29T16:13:31.539Z,18.67
2023-03-29T16:15:58.408Z,18.70
2023-03-29T16:18:27.372Z,18.73
2023-03-29T16:20:55.186Z,18.76
2023-03-29T16:23:22.625Z,18.76
2023-03-29T16:25:51.223Z,18.76
2023-03-29T16:28:18.347Z,18.80
2023-03-29T16:30:45.299Z,18.88
2023-03-29T16:33:12.619Z,18.90
2023-03-29T16:35:40.896Z,18.90
2023-03-29T16:38:09.057Z,18.78
2023-03-29T16:40:37.077Z,18.77
2023-03-29T16:43:05.792Z,18.76
2023-03-29T16:45:32.884Z,18.76
2023-03-29T16:48:00.110Z,18.80
2023-03-29T16:50:27.244Z,18.81
2023-03-29T16:52:54.434Z,18.84
2023-03-29T16:55:21.540Z,18.90
2023-03-29T16:57:48.943Z,18.88
2023-03-29T17:00:19.383Z,18.70
2023-03-29T17:02:47.747Z,18.57
2023-03-29T17:05:15.152Z,18.60
2023-03-29T17:07:42.114Z,18.60
2023-03-29T17:10:11.286Z,18.47
2023-03-29T17:12:38.827Z,18.53
2023-03-29T17:15:09.597Z,18.61
2023-03-29T17:17:38.401Z,18.70
2023-03-29T17:20:12.177Z,18.78
2023-03-29T17:22:40.158Z,18.83
2023-03-29T17:25:10.823Z,18.76
2023-03-29T17:27:41.891Z,18.61
2023-03-29T17:30:10.442Z,18.57
2023-03-29T17:32:39.176Z,18.43
2023-03-29T17:35:06.694Z,18.46
2023-03-29T17:37:33.841Z,18.45
2023-03-29T17:40:00.896Z,18.43
2023-03-29T17:42:27.828Z,18.43
2023-03-29T17:44:54.915Z,18.50
2023-03-29T17:47:21.908Z,18.61
2023-03-29T17:49:51.136Z,18.67
2023-03-29T17:52:18.764Z,18.68
2023-03-29T17:54:45.684Z,18.71
2023-03-29T17:57:13.190Z,18.71
2023-03-29T17:59:41.090Z,18.57
2023-03-29T18:02:17.412Z,18.61
2023-03-29T18:04:45.350Z,18.66
2023-03-29T18:07:14.759Z,18.57
2023-03-29T18:09:42.376Z,18.55
2023-03-29T18:12:09.904Z,18.57
2023-03-29T18:14:37.827Z,18.59
2023-03-29T18:17:05.665Z,18.60
2023-03-29T18:19:35.134Z,18.56
2023-03-29T18:22:03.145Z,18.47
2023-03-29T18:24:33.860Z,18.53
2023-03-29T18:27:01.482Z,18.59
2023-03-29T18:29:31.878Z,18.56
2023-03-29T18:32:00.850Z,18.45
2023-03-29T18:34:28.432Z,18.37
2023-03-29T18:36:55.845Z,18.35
2023-03-29T18:39:23.587Z,18.37
2023-03-29T18:44:44.593Z,18.28
2023-03-29T18:47:16.229Z,18.26
2023-03-29T18:49:45.208Z,18.33
2023-03-29T18:52:14.401Z,18.28
2023-03-29T18:54:41.950Z,18.33
2023-03-29T18:57:11.150Z,18.40
2023-03-29T18:59:38.753Z,18.36
2023-03-29T19:02:07.247Z,18.35
2023-03-29T19:04:34.405Z,18.42
2023-03-29T19:07:01.613Z,18.49
2023-03-29T19:09:28.811Z,18.42
2023-03-29T19:11:55.851Z,18.37
2023-03-29T19:14:25.061Z,18.28
2023-03-29T19:16:53.148Z,18.22
2023-03-29T19:19:22.925Z,18.19
2023-03-29T19:21:50.099Z,18.10
2023-03-29T19:24:17.456Z,18.09
2023-03-29T19:26:44.865Z,18.05
2023-03-29T19:29:11.870Z,18.09
2023-03-29T19:31:40.388Z,18.09
2023-03-29T19:34:07.719Z,18.04
2023-03-29T19:36:34.830Z,18.02
2023-03-29T19:39:01.852Z,18.06
2023-03-29T19:41:28.863Z,18.05
2023-03-29T19:43:56.186Z,17.96
2023-03-29T19:46:23.313Z,17.94
2023-03-29T19:48:51.665Z,17.96
2023-03-29T19:51:18.659Z,17.92
2023-03-29T19:53:45.629Z,17.94
2023-03-29T19:56:14.671Z,17.89
2023-03-29T19:58:42.192Z,17.82
2023-03-29T20:01:09.213Z,17.77
2023-03-29T20:03:36.559Z,17.82
2023-03-29T20:06:05.683Z,17.77
2023-03-29T20:08:35.349Z,17.73
2023-03-29T20:11:04.366Z,17.77
2023-03-29T20:13:38.703Z,17.79
2023-03-29T20:16:14.645Z,17.78
2023-03-29T20:18:43.265Z,17.74
2023-03-29T20:21:14.625Z,17.78
2023-03-29T20:23:42.214Z,17.57
2023-03-29T20:26:09.180Z,17.61
2023-03-29T20:28:36.676Z,17.58
2023-03-29T20:31:05.686Z,17.64
2023-03-29T20:33:33.221Z,17.65
2023-03-29T20:36:00.398Z,17.57
2023-03-29T20:38:40.625Z,17.67
2023-03-29T20:41:07.692Z,17.63
2023-03-29T20:43:34.710Z,17.70
2023-03-29T20:46:02.065Z,17.73
2023-03-29T20:48:29.273Z,17.70
2023-03-29T20:50:56.460Z,17.61
2023-03-29T20:53:23.874Z,17.61
2023-03-29T20:55:52.430Z,17.63
2023-03-29T20:58:19.439Z,17.71
2023-03-29T21:00:46.740Z,17.68
2023-03-29T21:03:13.914Z,17.65
2023-03-29T21:05:41.245Z,17.61
2023-03-29T21:08:08.431Z,17.63
2023-03-29T21:10:37.682Z,17.67
2023-03-29T21:13:06.160Z,17.74
2023-03-29T21:15:33.320Z,17.74
2023-03-29T21:18:00.904Z,17.68
2023-03-29T21:20:28.289Z,17.61
2023-03-29T21:22:55.677Z,17.58
2023-03-29T21:25:22.636Z,17.60
2023-03-29T21:27:49.662Z,17.61
2023-03-29T21:30:18.059Z,17.60
2023-03-29T21:32:45.673Z,17.65
2023-03-29T21:35:12.966Z,17.61
2023-03-29T21:37:40.668Z,17.51
2023-03-29T21:40:09.349Z,17.57
2023-03-29T21:42:36.738Z,17.53
2023-03-29T21:45:04.981Z,17.57
2023-03-29T21:47:33.503Z,17.60
2023-03-29T21:50:00.627Z,17.65
2023-03-29T21:52:27.603Z,17.68
2023-03-29T21:54:55.139Z,17.71
2023-03-29T21:57:22.039Z,17.70
2023-03-29T21:59:49.393Z,17.68
2023-03-29T22:02:18.856Z,17.64
2023-03-29T22:04:47.363Z,17.54
2023-03-29T22:07:14.927Z,17.28
2023-03-29T22:09:43.646Z,17.27
2023-03-29T22:12:11.090Z,17.23
2023-03-29T22:14:40.761Z,17.27
2023-03-29T22:17:08.374Z,17.23
2023-03-29T22:19:37.608Z,17.34
2023-03-29T22:22:06.979Z,17.41
2023-03-29T22:24:34.547Z,17.43
2023-03-29T22:27:01.714Z,17.36
2023-03-29T22:29:28.770Z,17.38
2023-03-29T22:31:58.128Z,17.43
2023-03-29T22:34:25.425Z,17.48
2023-03-29T22:36:53.168Z,17.44
2023-03-29T22:39:21.782Z,17.41
2023-03-29T22:41:49.943Z,17.44
2023-03-29T22:44:22.991Z,17.48
2023-03-29T22:46:52.332Z,17.51
2023-03-29T22:49:21.202Z,17.53
2023-03-29T22:51:53.285Z,17.64
2023-03-29T22:54:21.922Z,17.63
2023-03-29T22:56:50.802Z,17.63
2023-03-29T22:59:20.720Z,17.68
2023-03-29T23:01:48.720Z,17.70
2023-03-29T23:04:16.462Z,17.74
2023-03-29T23:06:43.824Z,17.78
2023-03-29T23:09:15.173Z,17.79
2023-03-29T23:11:45.457Z,17.65
2023-03-29T23:14:13.041Z,17.61
2023-03-29T23:16:41.268Z,17.64
2023-03-29T23:19:08.950Z,17.51
2023-03-29T23:21:36.618Z,17.48
2023-03-29T23:24:04.957Z,17.34
2023-03-29T23:26:32.768Z,17.38
2023-03-29T23:29:03.917Z,17.47
2023-03-29T23:31:31.986Z,17.47
2023-03-29T23:33:59.442Z,17.55
2023-03-29T23:36:26.526Z,17.51
2023-03-29T23:38:53.824Z,17.54
2023-03-29T23:41:21.767Z,17.61
2023-03-29T23:43:49.301Z,17.65
2023-03-29T23:46:19.029Z,17.70
2023-03-29T23:48:48.636Z,17.68
2023-03-29T23:51:18.143Z,17.64
2023-03-29T23:53:46.709Z,17.70
2023-03-29T23:56:14.428Z,17.73
2023-03-29T23:58:43.153Z,17.81
